createdAt,value
2023-02-27T00:04:17.383Z,56.62
2023-02-27T00:09:19.060Z,55.41
2023-02-27T00:14:20.779Z,56.74
2023-02-27T00:19:22.757Z,54.80
2023-02-27T00:24:24.582Z,55.21
2023-02-27T00:29:26.508Z,54.38
2023-02-27T00:34:28.464Z,55.03
2023-02-27T00:39:30.237Z,54.97
2023-02-27T00:44:32.170Z,56.44
2023-02-27T00:49:33.842Z,56.96
2023-02-27T00:54:35.824Z,58.15
2023-02-27T00:59:37.526Z,59.12
2023-02-27T01:04:39.357Z,61.17
2023-02-27T01:09:41.239Z,62.52
2023-02-27T01:14:44.510Z,62.41
2023-02-27T01:19:46.422Z,65.25
2023-02-27T01:24:48.294Z,65.09
2023-02-27T01:29:50.127Z,65.67
2023-02-27T01:34:51.761Z,66.02
2023-02-27T01:39:53.555Z,66.77
2023-02-27T01:45:20.623Z,67.13
2023-02-27T01:50:22.515Z,67.83
2023-02-27T01:55:27.977Z,68.45
2023-02-27T02:00:29.674Z,68.79
2023-02-27T02:05:31.819Z,68.04
2023-02-27T02:10:33.549Z,69.03
2023-02-27T02:15:40.083Z,70.78
2023-02-27T02:21:03.026Z,70.53
2023-02-27T02:26:24.835Z,70.96
2023-02-27T02:31:32.816Z,71.40
2023-02-27T02:36:56.305Z,70.98
2023-02-27T02:42:19.653Z,71.66
2023-02-27T02:48:09.019Z,72.24
2023-02-27T02:53:22.121Z,72.30
2023-02-27T02:58:35.549Z,70.65
2023-02-27T03:03:43.448Z,71.15
2023-02-27T03:08:59.823Z,71.53
2023-02-27T03:14:10.871Z,70.63
2023-02-27T03:19:21.888Z,71.63
2023-02-27T03:24:32.282Z,70.29
2023-02-27T03:30:05.444Z,67.93
2023-02-27T03:35:07.838Z,68.12
2023-02-27T03:40:33.811Z,67.57
2023-02-27T03:45:45.403Z,68.02
2023-02-27T03:50:47.140Z,68.36
2023-02-27T03:55:51.329Z,68.17
2023-02-27T04:00:53.353Z,68.30
2023-02-27T04:05:55.008Z,68.42
2023-02-27T04:10:56.600Z,68.88
2023-02-27T04:16:04.151Z,68.06
2023-02-27T04:21:11.389Z,69.00
2023-02-27T04:26:15.744Z,70.19
2023-02-27T04:31:24.888Z,69.50
2023-02-27T04:36:47.010Z,68.57
2023-02-27T04:42:02.167Z,70.35
2023-02-27T04:47:06.935Z,70.78
2023-02-27T04:52:44.861Z,70.66
2023-02-27T04:58:08.610Z,70.88
2023-02-27T05:03:18.600Z,71.42
2023-02-27T05:08:43.946Z,71.37
2023-02-27T05:13:55.707Z,70.81
2023-02-27T05:18:57.406Z,72.83
2023-02-27T05:24:14.247Z,72.41
2023-02-27T05:29:37.090Z,71.78
2023-02-27T05:34:52.581Z,71.98
2023-02-27T05:39:54.525Z,72.39
2023-02-27T05:45:04.961Z,72.05
2023-02-27T05:50:10.165Z,72.36
2023-02-27T05:55:22.650Z,72.17
2023-02-27T06:00:34.328Z,72.35
2023-02-27T06:05:39.663Z,72.90
2023-02-27T06:10:41.573Z,73.65
2023-02-27T06:15:44.903Z,73.79
2023-02-27T06:20:47.528Z,73.28
2023-02-27T06:25:50.034Z,72.83
2023-02-27T06:30:57.370Z,72.83
2023-02-27T06:35:59.231Z,73.20
2023-02-27T06:41:00.879Z,73.14
2023-02-27T06:46:03.156Z,73.30
2023-02-27T06:51:05.070Z,73.19
2023-02-27T06:56:07.002Z,73.05
2023-02-27T07:01:08.853Z,72.99
2023-02-27T07:06:12.371Z,72.49
2023-02-27T07:11:14.139Z,71.88
2023-02-27T07:16:15.830Z,72.53
2023-02-27T07:21:17.680Z,71.91
2023-02-27T07:26:19.447Z,72.21
2023-02-27T07:31:21.350Z,71.47
2023-02-27T07:36:23.275Z,71.53
2023-02-27T07:41:30.795Z,70.00
2023-02-27T07:46:33.261Z,69.35
2023-02-27T07:51:35.151Z,68.06
2023-02-27T07:56:37.015Z,68.16
2023-02-27T08:01:39.314Z,65.73
2023-02-27T08:06:41.571Z,62.12
2023-02-27T08:11:43.460Z,60.62
2023-02-27T08:16:45.309Z,60.91
2023-02-27T08:21:47.303Z,61.01
2023-02-27T08:26:49.353Z,61.49
2023-02-27T08:31:51.235Z,60.92
2023-02-27T08:36:53.970Z,60.51
2023-02-27T08:41:55.625Z,60.87
2023-02-27T08:46:58.764Z,59.25
2023-02-27T08:52:01.278Z,59.05
2023-02-27T08:57:04.259Z,57.13
2023-02-27T09:02:06.569Z,56.91
2023-02-27T09:07:08.297Z,56.55
2023-02-27T09:12:10.139Z,56.33
2023-02-27T09:17:13.126Z,55.79
2023-02-27T09:22:15.062Z,56.27
2023-02-27T09:27:17.362Z,54.44
2023-02-27T09:32:19.104Z,54.63
2023-02-27T09:37:20.937Z,54.48
2023-02-27T09:42:26.519Z,54.73
2023-02-27T09:47:35.601Z,54.81
2023-02-27T09:52:37.803Z,55.24
2023-02-27T09:57:47.253Z,54.49
2023-02-27T10:02:58.825Z,53.94
2023-02-27T10:08:09.400Z,54.38
2023-02-27T10:13:32.198Z,53.23
2023-02-27T10:18:44.605Z,52.97
2023-02-27T10:23:59.874Z,51.95
2023-02-27T10:29:36.698Z,50.97
2023-02-27T10:34:41.453Z,51.89
2023-02-27T10:39:49.799Z,52.19
2023-02-27T10:44:54.655Z,51.32
2023-02-27T10:50:00.173Z,50.73
2023-02-27T10:55:19.478Z,50.76
2023-02-27T11:00:31.584Z,50.40
2023-02-27T11:05:37.355Z,50.82
2023-02-27T11:10:54.458Z,49.56
2023-02-27T11:16:07.271Z,49.72
2023-02-27T11:21:11.684Z,48.89
2023-02-27T11:26:22.619Z,50.46
2023-02-27T11:31:24.414Z,48.55
2023-02-27T11:36:46.988Z,49.28
2023-02-27T11:41:49.177Z,49.41
2023-02-27T11:46:51.365Z,49.10
2023-02-27T11:52:14.725Z,50.30
2023-02-27T11:57:30.245Z,49.43
2023-02-27T12:02:39.262Z,47.89
2023-02-27T12:07:46.945Z,48.72
2023-02-27T12:13:02.144Z,48.36
2023-02-27T12:18:14.317Z,49.64
2023-02-27T12:23:24.193Z,49.34
2023-02-27T12:29:00.256Z,48.75
2023-02-27T12:34:10.719Z,47.44
2023-02-27T12:39:26.559Z,47.97
2023-02-27T12:44:58.672Z,47.83
2023-02-27T12:50:12.949Z,47.89
2023-02-27T12:55:23.711Z,47.49
2023-02-27T13:01:00.180Z,47.54
2023-02-27T13:06:08.027Z,47.46
2023-02-27T13:11:25.500Z,48.13
2023-02-27T13:16:35.675Z,48.67
2023-02-27T13:21:45.892Z,47.95
2023-02-27T13:26:52.815Z,46.80
2023-02-27T13:32:32.765Z,47.20
2023-02-27T13:38:24.380Z,46.42
2023-02-27T13:43:51.080Z,47.21
2023-02-27T13:49:20.089Z,46.89
2023-02-27T13:54:32.302Z,46.46
2023-02-27T13:59:36.960Z,47.03
2023-02-27T14:04:49.991Z,47.12
2023-02-27T14:10:00.378Z,47.01
2023-02-27T14:15:22.143Z,46.45
2023-02-27T14:20:33.127Z,46.79
2023-02-27T14:25:55.582Z,47.78
2023-02-27T14:31:34.427Z,47.72
2023-02-27T14:37:00.791Z,47.54
2023-02-27T14:42:15.706Z,47.72
2023-02-27T14:47:36.599Z,47.42
2023-02-27T14:52:43.480Z,48.04
2023-02-27T14:57:56.735Z,46.95
2023-02-27T15:02:59.328Z,47.72
2023-02-27T15:08:01.145Z,48.46
2023-02-27T15:13:03.718Z,48.02
2023-02-27T15:18:13.829Z,48.16
2023-02-27T15:23:28.406Z,47.59
2023-02-27T15:28:37.640Z,46.92
2023-02-27T15:33:43.045Z,47.53
2023-02-27T15:38:45.097Z,47.86
2023-02-27T15:43:47.068Z,48.30
2023-02-27T15:48:52.202Z,48.25
2023-02-27T15:53:58.530Z,48.36
2023-02-27T15:59:01.524Z,49.21
2023-02-27T16:04:20.563Z,49.70
2023-02-27T16:09:44.177Z,49.12
2023-02-27T16:14:46.526Z,49.25
2023-02-27T16:19:48.737Z,48.96
2023-02-27T16:24:51.305Z,48.79
2023-02-27T16:29:56.109Z,49.38
2023-02-27T16:35:05.939Z,49.43
2023-02-27T16:40:19.399Z,48.68
2023-02-27T16:45:22.470Z,49.17
2023-02-27T16:50:30.025Z,50.14
2023-02-27T16:55:33.660Z,50.06
2023-02-27T17:00:35.954Z,49.79
2023-02-27T17:05:37.691Z,50.64
2023-02-27T17:10:39.403Z,50.80
2023-02-27T17:15:41.534Z,50.92
2023-02-27T17:20:48.022Z,50.74
2023-02-27T17:25:50.543Z,51.29
2023-02-27T17:30:54.971Z,51.09
2023-02-27T17:36:08.993Z,51.20
2023-02-27T17:41:13.389Z,50.80
2023-02-27T17:46:17.229Z,50.66
2023-02-27T17:51:20.220Z,51.19
2023-02-27T17:56:23.158Z,51.14
2023-02-27T18:01:26.857Z,50.88
2023-02-27T18:06:29.752Z,51.14
2023-02-27T18:11:32.035Z,51.67
2023-02-27T18:16:35.701Z,51.48
2023-02-27T18:21:38.516Z,50.99
2023-02-27T18:26:42.239Z,51.74
2023-02-27T18:31:47.285Z,51.47
2023-02-27T18:36:51.925Z,51.64
2023-02-27T18:41:54.618Z,52.05
2023-02-27T18:46:58.481Z,52.56
2023-02-27T18:52:01.263Z,52.23
2023-02-27T18:57:03.901Z,51.95
2023-02-27T19:02:06.527Z,51.95
2023-02-27T19:07:09.443Z,51.54
2023-02-27T19:12:12.579Z,51.38
2023-02-27T19:17:15.310Z,51.39
2023-02-27T19:22:18.133Z,51.33
2023-02-27T19:27:20.769Z,51.59
2023-02-27T19:32:23.489Z,51.66
2023-02-27T19:37:26.325Z,51.05
2023-02-27T19:42:32.776Z,52.02
2023-02-27T19:47:38.038Z,52.16
2023-02-27T19:52:41.039Z,51.50
2023-02-27T19:57:43.877Z,52.35
2023-02-27T20:02:46.323Z,52.47
2023-02-27T20:07:49.066Z,52.40
2023-02-27T20:12:56.690Z,52.46
2023-02-27T20:17:58.887Z,52.38
2023-02-27T20:23:01.497Z,52.18
2023-02-27T20:28:05.030Z,51.98
2023-02-27T20:33:07.852Z,52.40
2023-02-27T20:38:10.673Z,52.61
2023-02-27T20:43:13.216Z,51.74
2023-02-27T20:48:15.704Z,51.43
2023-02-27T20:53:17.931Z,51.49
2023-02-27T20:58:20.266Z,52.37
2023-02-27T21:03:22.799Z,52.88
2023-02-27T21:08:25.320Z,53.65
2023-02-27T21:13:27.443Z,53.46
2023-02-27T21:18:29.320Z,52.93
2023-02-27T21:23:31.180Z,53.82
2023-02-27T21:28:33.167Z,53.63
2023-02-27T21:33:35.271Z,53.31
2023-02-27T21:38:38.616Z,53.15
2023-02-27T21:43:40.769Z,53.47
2023-02-27T21:48:43.551Z,53.29
2023-02-27T21:53:46.818Z,53.84
2023-02-27T21:58:48.975Z,53.78
2023-02-27T22:03:53.195Z,54.07
2023-02-27T22:08:56.864Z,54.10
2023-02-27T22:13:58.642Z,55.12
2023-02-27T22:19:05.297Z,55.70
2023-02-27T22:24:07.501Z,56.11
2023-02-27T22:29:09.216Z,56.57
2023-02-27T22:34:13.173Z,58.31
2023-02-27T22:39:16.270Z,57.64
2023-02-27T22:44:18.300Z,58.67
2023-02-27T22:49:23.578Z,58.70
2023-02-27T22:54:25.331Z,58.38
2023-02-27T22:59:27.052Z,57.66
2023-02-27T23:04:29.963Z,58.19
2023-02-27T23:09:31.707Z,58.73
2023-02-27T23:14:33.853Z,58.15
2023-02-27T23:19:36.627Z,59.13
2023-02-27T23:24:39.594Z,60.00
2023-02-27T23:29:41.363Z,59.97
2023-02-27T23:34:49.418Z,59.99
2023-02-27T23:39:51.617Z,60.25
2023-02-27T23:44:53.356Z,59.15
2023-02-27T23:49:55.084Z,60.26
2023-02-27T23:54:57.026Z,60.45
2023-02-27T23:59:58.740Z,60.90
